Time;durP1;ratioP1;P1;durP2;ratioP2;P2;SDS_P1;SDS_P2;PMS_P1;PMS_P2;Temp;Humidity;BMP_temperature;BMP_pressure;BME280_temperature;BME280_humidity;BME280_pressure;Samples;Min_cycle;Max_cycle;Signal;HPM_P1;HPM_P2
2023/12/20 05:35:52;;;;;;;0.90;0.80;;;7.90;99.50;;;8.02;66.67;98827.88;5193708;23;97996;-84
2023/12/20 05:46:21;;;;;;;1.00;0.80;;;5.60;98.70;;;7.95;67.10;98831.81;4889319;28;125129;-84
2023/12/20 06:11:58;;;;;;;1.03;0.80;;;5.40;99.40;;;7.95;68.08;98870.34;4884785;28;125119;-86
2023/12/20 06:18:50;;;;;;;1.10;0.80;;;7.70;99.90;;;7.99;68.25;98876.06;4861475;28;116457;-85
2023/12/20 06:22:11;;;;;;;1.63;0.90;;;6.70;99.90;;;8.02;68.42;98878.22;4777281;29;113158;-85
2023/12/20 06:25:48;;;;;;;2.13;1.07;;;7.10;99.90;;;8.06;68.66;98875.69;4781583;29;124024;-85
2023/12/20 06:32:57;;;;;;;1.10;0.90;;;8.00;99.90;;;8.11;68.64;98856.38;4784503;29;116234;-85
2023/12/20 06:35:42;;;;;;;1.00;0.90;;;7.90;99.90;;;8.10;68.47;98861.06;4724314;29;115409;-85
2023/12/20 06:50:10;;;;;;;1.10;0.90;;;8.10;99.90;;;8.18;68.73;98892.63;4723775;29;115146;-85
2023/12/20 06:54:14;;;;;;;1.40;1.00;;;8.00;99.90;;;8.21;68.56;98894.78;4715358;30;123212;-85
2023/12/20 07:01:42;;;;;;;1.27;1.10;;;6.70;99.90;;;8.29;68.31;98896.06;4700397;29;115468;-87
2023/12/20 07:08:45;;;;;;;1.73;1.00;;;7.00;99.90;;;8.43;68.06;98912.69;4724738;29;125189;-87
2023/12/20 07:12:31;;;;;;;8.80;1.43;;;10.30;99.90;;;8.51;68.48;98915.59;4729499;29;124522;-86
2023/12/20 07:15:52;;;;;;;2.33;1.10;;;7.00;99.90;;;8.54;68.26;98920.53;4682525;29;112947;-87
2023/12/20 07:19:10;;;;;;;1.57;1.10;;;8.20;99.90;;;8.54;68.21;98926.06;4682622;30;113795;-86
2023/12/20 07:23:12;;;;;;;1.00;0.80;;;8.40;99.90;;;8.54;67.90;98933.47;4670622;29;124404;-86
2023/12/20 07:26:42;;;;;;;2.27;0.97;;;6.90;99.90;;;8.53;67.79;98942.88;4670427;30;123849;-86
2023/12/20 07:30:40;;;;;;;1.30;1.20;;;7.10;99.90;;;8.54;67.72;98952.75;4713515;30;114835;-86
2023/12/20 07:33:43;;;;;;;1.10;1.00;;;8.30;99.90;;;8.56;67.64;98953.28;4695509;30;113414;-86
2023/12/20 07:36:38;;;;;;;4.13;1.20;;;8.30;99.90;;;8.53;67.58;98962.13;4685158;30;123889;-86
2023/12/20 07:40:01;;;;;;;1.47;1.17;;;8.20;99.90;;;8.50;67.46;98954.47;4713372;29;122983;-86
2023/12/20 07:43:08;;;;;;;2.50;1.13;;;7.00;99.90;;;8.47;67.26;98963.31;4694428;30;115066;-87
2023/12/20 07:46:22;;;;;;;2.37;1.20;;;8.30;99.90;;;8.44;67.02;98981.25;4712674;29;115586;-86
2023/12/20 07:48:50;;;;;;;2.17;1.60;;;8.30;99.90;;;8.39;66.52;98973.88;4782483;29;123766;-87
2023/12/20 07:51:17;;;;;;;1.60;1.40;;;8.20;99.90;;;8.34;66.49;98973.06;4722453;29;123519;-87
2023/12/20 07:54:16;;;;;;;1.27;1.10;;;8.10;99.90;;;8.33;66.37;98963.19;4793964;29;114092;-86
2023/12/20 07:57:10;;;;;;;1.80;1.50;;;8.10;99.90;;;8.34;66.41;98960.13;4810996;29;113379;-86
2023/12/20 07:59:44;;;;;;;2.27;1.40;;;7.30;99.50;;;8.32;65.61;98967.84;4806329;29;122591;-86
2023/12/20 08:02:23;;;;;;;1.83;1.33;;;8.10;99.90;;;8.27;65.51;98961.59;4785959;29;122911;-87
2023/12/20 08:05:30;;;;;;;1.90;1.53;;;8.30;99.60;;;8.23;65.33;98966.88;4768718;29;113919;-86
2023/12/20 08:08:29;;;;;;;2.40;1.40;;;8.10;99.10;;;8.18;65.07;98969.69;4785423;29;113844;-86
2023/12/20 08:11:28;;;;;;;2.40;1.77;;;8.10;99.40;;;8.13;64.97;98970.53;4745228;29;123849;-86
2023/12/20 08:14:07;;;;;;;2.83;1.70;;;8.10;99.00;;;8.13;64.69;98981.56;4705510;30;123151;-86
2023/12/20 08:16:40;;;;;;;1.83;1.70;;;5.60;97.90;;;8.09;64.86;98985.19;4709929;29;114833;-87
2023/12/20 08:19:52;;;;;;;2.37;1.70;;;7.90;98.90;;;8.07;64.51;98990.16;4720975;29;112061;-87
2023/12/20 08:23:31;;;;;;;3.23;1.70;;;8.30;98.80;;;8.01;64.12;98996.84;4691883;30;123852;-86
2023/12/20 08:26:35;;;;;;;2.60;1.90;;;8.00;98.60;;;7.95;64.23;99002.41;4709889;30;123637;-86
2023/12/20 08:30:00;;;;;;;2.50;1.90;;;7.20;98.20;;;7.92;64.18;98997.44;4687783;30;114928;-87
2023/12/20 08:32:40;;;;;;;3.17;2.30;;;7.00;98.00;;;7.90;64.20;98998.88;4726884;29;112307;-84
2023/12/20 08:35:33;;;;;;;3.23;1.70;;;7.80;98.30;;;7.93;63.95;99003.78;4742984;29;122147;-86
2023/12/20 08:38:25;;;;;;;2.50;1.80;;;5.80;97.60;;;7.89;63.83;99006.28;4734505;29;123080;-87
2023/12/20 08:41:06;;;;;;;2.83;1.80;;;7.90;98.50;;;7.91;63.64;99012.31;4745781;29;113664;-86
2023/12/20 08:43:58;;;;;;;2.17;1.53;;;7.80;98.30;;;7.99;63.49;99019.13;4727830;29;114001;-88
2023/12/20 08:46:48;;;;;;;3.97;2.83;;;9.30;98.80;;;7.95;63.25;99023.56;4755131;29;123021;-86
2023/12/20 08:49:38;;;;;;;2.10;1.90;;;7.60;97.70;;;7.97;62.98;99021.34;4742968;29;122931;-86
2023/12/20 08:52:38;;;;;;;4.43;2.10;;;7.50;97.90;;;7.98;63.07;99028.50;4727080;29;114182;-86
2023/12/20 08:55:31;;;;;;;2.40;2.00;;;8.00;97.90;;;7.97;62.78;99029.59;4707872;30;112064;-88
2023/12/20 08:58:01;;;;;;;3.20;1.70;;;10.50;98.50;;;8.02;62.76;99039.75;4693213;30;122723;-87
2023/12/20 09:00:32;;;;;;;3.97;1.83;;;10.30;98.90;;;8.01;62.29;99032.63;4695531;30;121857;-87
2023/12/20 09:03:37;;;;;;;1.90;1.67;;;6.90;97.30;;;7.96;62.26;99009.53;4709539;29;112464;-87
2023/12/20 09:06:30;;;;;;;5.10;2.00;;;7.70;97.50;;;7.96;62.17;99015.03;4697016;29;113839;-86
2023/12/20 09:09:37;;;;;;;4.10;2.10;;;7.70;97.70;;;7.92;62.39;99018.63;4697120;29;123797;-87
2023/12/20 09:12:06;;;;;;;3.63;2.10;;;7.80;97.50;;;7.94;62.33;99021.94;4727774;29;122628;-87
2023/12/20 09:14:34;;;;;;;3.20;1.87;;;7.70;97.70;;;7.96;62.37;99028.78;4727244;29;113512;-86
2023/12/20 09:17:58;;;;;;;3.23;2.17;;;6.70;97.20;;;7.94;62.29;99028.25;4692490;29;112491;-87
2023/12/20 09:21:27;;;;;;;2.60;1.63;;;7.60;97.40;;;7.94;62.39;99019.19;4711308;30;122586;-87
2023/12/20 09:24:34;;;;;;;2.53;2.07;;;8.50;97.80;;;7.96;62.54;99025.22;4768946;29;124057;-86
2023/12/20 09:27:37;;;;;;;2.40;1.90;;;10.30;98.30;;;8.01;62.36;99010.59;4751682;29;114143;-87
2023/12/20 09:30:24;;;;;;;2.87;1.60;;;7.80;97.60;;;7.94;61.57;99022.75;4778285;29;113881;-87
2023/12/20 09:33:06;;;;;;;2.80;1.63;;;10.40;98.10;;;7.93;61.52;99031.31;4743201;29;122626;-86
2023/12/20 09:35:39;;;;;;;2.33;1.80;;;6.10;96.40;;;7.97;61.19;99030.41;4782222;29;122435;-87
2023/12/20 09:38:09;;;;;;;2.80;2.03;;;7.00;96.90;;;8.00;60.70;99030.94;4744044;29;114258;-87
2023/12/20 09:40:47;;;;;;;3.13;1.60;;;7.70;96.80;;;7.99;60.68;99037.56;4759063;29;113685;-86
2023/12/20 09:43:22;;;;;;;6.13;2.00;;;7.70;96.60;;;8.01;60.03;99033.44;4768323;29;123009;-87
2023/12/20 09:45:59;;;;;;;3.20;1.50;;;8.80;96.80;;;8.01;59.52;99025.19;4777271;29;122976;-86
2023/12/20 09:48:54;;;;;;;5.07;1.70;;;6.40;95.40;;;8.06;59.00;99044.38;4776328;29;113176;-86
2023/12/20 09:51:23;;;;;;;4.50;1.90;;;7.60;95.60;;;8.05;58.74;99044.66;4758084;29;112725;-87
2023/12/20 09:54:03;;;;;;;4.00;1.60;;;9.00;96.00;;;8.07;58.55;99043.28;4763649;29;122706;-87
2023/12/20 09:56:30;;;;;;;3.00;1.70;;;7.90;95.80;;;8.06;58.15;99041.63;4743857;29;123781;-87
2023/12/20 09:59:10;;;;;;;5.63;1.50;;;5.70;94.60;;;8.11;57.81;99049.84;4743758;29;113506;-87
2023/12/20 10:01:40;;;;;;;5.10;1.67;;;6.50;94.50;;;8.13;57.13;99047.59;4736924;29;112310;-86
2023/12/20 10:04:21;;;;;;;3.07;1.67;;;8.00;95.10;;;8.15;57.61;99039.06;4747996;29;122408;-85
2023/12/20 10:07:00;;;;;;;6.80;1.90;;;7.80;95.20;;;8.21;57.19;99046.16;4716019;29;122282;-87
2023/12/20 10:09:29;;;;;;;5.27;1.40;;;8.00;94.90;;;8.23;57.13;99043.13;4733228;29;112749;-87
2023/12/20 10:12:49;;;;;;;4.53;2.50;;;10.90;95.50;;;8.28;57.35;99035.63;4727696;29;112667;-87
2023/12/20 10:15:36;;;;;;;4.93;1.60;;;8.00;94.80;;;8.38;56.76;99046.53;4730404;29;122934;-87
2023/12/20 10:18:27;;;;;;;6.57;2.10;;;8.00;94.50;;;8.43;56.30;99044.84;4761831;29;123208;-85
2023/12/20 10:21:22;;;;;;;5.60;2.00;;;8.20;94.40;;;8.43;56.02;99044.84;4764223;29;112354;-86
2023/12/20 10:23:57;;;;;;;7.07;2.40;;;8.10;94.10;;;8.46;55.46;99045.09;4755459;29;114108;-86
2023/12/20 10:26:36;;;;;;;3.00;1.63;;;10.00;94.20;;;8.45;55.45;99031.63;4743079;29;123549;-85
2023/12/20 10:29:22;;;;;;;3.37;1.50;;;10.60;94.30;;;8.47;55.71;99034.91;4743479;29;123127;-85
2023/12/20 10:31:57;;;;;;;4.37;1.67;;;11.40;94.50;;;8.45;55.24;99037.13;4738979;29;113857;-86
2023/12/20 10:34:59;;;;;;;8.87;1.90;;;9.70;94.40;;;8.45;55.25;99015.09;4768162;29;113331;-85
2023/12/20 10:37:40;;;;;;;3.07;2.10;;;8.20;93.40;;;8.42;55.05;99010.19;4765671;29;123927;-86
2023/12/20 10:40:27;;;;;;;5.00;1.63;;;5.50;92.70;;;8.39;55.18;99009.66;4780615;29;122293;-85
2023/12/20 10:43:14;;;;;;;2.73;1.40;;;8.10;93.60;;;8.37;55.27;99014.59;4751054;29;114214;-87
2023/12/20 10:46:05;;;;;;;4.93;1.60;;;8.20;93.50;;;8.36;55.46;99017.66;4766162;29;112007;-85
2023/12/20 10:48:47;;;;;;;5.00;1.63;;;8.10;93.60;;;8.34;55.76;99019.88;4785826;29;122799;-86
2023/12/20 10:51:35;;;;;;;5.30;2.10;;;6.50;93.00;;;8.33;55.65;99016.31;4793891;29;123667;-85
2023/12/20 10:54:05;;;;;;;14.03;2.20;;;8.70;94.10;;;8.35;55.73;99011.31;4779756;29;113667;-86
2023/12/20 10:56:35;;;;;;;8.17;1.93;;;7.40;93.60;;;8.32;55.88;99017.41;4785186;29;113793;-86
2023/12/20 10:59:05;;;;;;;4.87;1.73;;;8.10;93.90;;;8.33;55.94;99010.81;4790511;29;123516;-86
2023/12/20 11:01:38;;;;;;;7.90;1.60;;;8.20;94.10;;;8.31;55.85;99004.75;4781924;29;123456;-86
2023/12/20 11:04:25;;;;;;;5.30;1.80;;;7.30;93.60;;;8.29;55.53;99003.41;4763538;29;112517;-86
2023/12/20 11:07:57;;;;;;;8.23;2.00;;;8.10;93.80;;;8.26;55.53;99001.25;4764985;29;115617;-86
2023/12/20 11:11:45;;;;;;;6.30;1.60;;;8.30;93.60;;;8.22;55.56;99006.53;4792095;29;123224;-87
2023/12/20 11:14:31;;;;;;;4.00;1.60;;;8.00;93.30;;;8.22;55.70;99003.78;4763253;29;123081;-85
2023/12/20 11:17:22;;;;;;;6.10;1.80;;;7.90;93.30;;;8.21;54.86;98999.38;4767119;29;114704;-86
2023/12/20 11:20:24;;;;;;;7.03;2.37;;;7.00;92.80;;;8.17;55.02;98998.31;4755616;29;114070;-85
2023/12/20 11:23:30;;;;;;;5.00;1.83;;;6.50;92.80;;;8.21;54.99;98999.38;4740352;29;123783;-86
2023/12/20 11:25:58;;;;;;;3.77;2.07;;;8.00;93.20;;;8.21;54.88;98996.59;4714164;29;122284;-84
2023/12/20 11:28:39;;;;;;;5.40;1.80;;;8.00;93.30;;;8.21;54.48;98988.34;4711810;29;113740;-87
2023/12/20 11:31:30;;;;;;;3.13;1.40;;;5.60;92.30;;;8.18;54.71;98997.19;4699030;29;114875;-86
2023/12/20 11:34:17;;;;;;;4.40;1.50;;;8.20;93.10;;;8.16;54.82;98997.47;4671578;29;123749;-85
2023/12/20 11:37:14;;;;;;;3.53;1.60;;;7.90;93.20;;;8.18;55.00;98994.44;4697268;29;122562;-83
2023/12/20 11:40:03;;;;;;;4.77;1.90;;;7.60;93.30;;;8.18;54.66;98991.69;4641434;30;112622;-86
2023/12/20 11:42:50;;;;;;;3.80;1.40;;;7.90;92.90;;;8.16;54.22;98996.66;4647357;30;113289;-85
2023/12/20 11:45:39;;;;;;;5.90;1.77;;;7.90;92.70;;;8.13;53.64;99008.25;4625663;30;123728;-86
2023/12/20 11:48:44;;;;;;;7.60;1.67;;;6.00;91.50;;;8.08;53.71;98994.56;4630144;30;123714;-86
2023/12/20 11:51:53;;;;;;;3.20;1.83;;;9.40;93.10;;;8.06;53.63;99005.03;4707266;30;114624;-86
2023/12/20 11:54:47;;;;;;;3.90;1.60;;;7.80;92.20;;;8.05;53.57;98995.94;4692294;30;114001;-85
2023/12/20 11:58:00;;;;;;;2.90;1.73;;;7.80;92.10;;;8.02;53.65;98984.72;4676467;30;122460;-86
2023/12/20 12:00:28;;;;;;;8.57;1.80;;;7.80;92.10;;;8.04;53.54;98994.31;4670077;30;122715;-87
2023/12/20 12:03:42;;;;;;;3.80;1.90;;;10.50;93.10;;;8.02;53.31;98981.97;4687192;30;113437;-86
2023/12/20 12:06:33;;;;;;;7.07;2.00;;;7.90;92.30;;;8.01;53.37;98983.09;4692507;30;114841;-87
2023/12/20 12:09:03;;;;;;;8.57;2.07;;;8.80;92.50;;;8.01;53.31;98967.41;4665006;30;123475;-86
2023/12/20 12:11:47;;;;;;;5.17;1.97;;;7.80;92.00;;;8.02;53.28;98970.97;4695276;30;123159;-86
2023/12/20 12:14:21;;;;;;;7.17;1.80;;;7.80;92.00;;;8.04;53.43;98971.50;4693448;30;114310;-86
2023/12/20 12:16:50;;;;;;;3.47;1.23;;;9.30;92.70;;;8.06;53.35;98959.09;4723097;29;113344;-87
2023/12/20 12:19:45;;;;;;;3.73;1.50;;;7.30;92.10;;;8.08;53.32;98953.28;4765814;29;123976;-86
2023/12/20 12:22:27;;;;;;;3.10;1.67;;;7.80;92.20;;;8.08;53.15;98940.31;4740447;29;122319;-86
2023/12/20 12:25:15;;;;;;;9.60;1.90;;;7.80;92.50;;;8.13;53.16;98943.03;4742388;29;113561;-86
2023/12/20 12:27:44;;;;;;;5.00;1.73;;;7.90;92.10;;;8.19;53.26;98955.63;4710009;29;113217;-86
2023/12/20 12:30:30;;;;;;;6.63;1.87;;;10.60;92.80;;;8.18;53.19;98942.16;4713095;29;124169;-85
2023/12/20 12:33:12;;;;;;;4.00;1.60;;;7.90;92.50;;;8.24;53.56;98935.47;4686473;30;122631;-85
2023/12/20 12:35:50;;;;;;;4.20;1.70;;;8.00;92.30;;;8.34;53.64;98937.28;4711567;29;113946;-86
2023/12/20 12:38:24;;;;;;;2.97;1.60;;;8.10;92.50;;;8.38;53.14;98938.31;4707243;29;112065;-86
2023/12/20 12:41:15;;;;;;;4.73;2.10;;;8.10;92.40;;;8.45;52.87;98938.00;4710005;29;122690;-87
2023/12/20 12:44:22;;;;;;;;;;;;;;;;;;;;;
2023/12/20 12:46:56;;;;;;;8.33;1.53;;;8.10;91.80;;;8.47;52.15;98949.56;4694784;29;114645;-87
2023/12/20 12:49:33;;;;;;;5.33;1.60;;;8.40;91.70;;;8.46;52.08;98928.63;4738404;29;113653;-86
2023/12/20 12:52:59;;;;;;;5.00;1.77;;;8.30;91.50;;;8.49;52.41;98928.03;4708185;30;122005;-87
2023/12/20 12:55:56;;;;;;;3.17;1.60;;;8.10;91.50;;;8.53;52.65;98934.59;4711831;29;123374;-87
2023/12/20 12:58:25;;;;;;;10.10;2.17;;;8.30;91.90;;;8.59;52.38;98952.69;4723766;29;112769;-87
2023/12/20 13:01:09;;;;;;;4.80;1.90;;;7.30;91.20;;;8.61;52.46;98945.78;4799059;29;112613;-88
2023/12/20 13:04:10;;;;;;;5.70;1.40;;;8.30;91.60;;;8.66;52.00;98950.41;4765815;29;122385;-87
2023/12/20 13:06:57;;;;;;;2.63;1.53;;;8.40;91.40;;;8.63;52.13;98940.78;4765944;29;122560;-87
2023/12/20 13:09:55;;;;;;;4.97;1.53;;;8.60;91.70;;;8.64;51.89;98947.09;4765130;29;113051;-87
2023/12/20 13:17:04;;;;;;;4.63;1.50;;;8.40;91.10;;;8.53;51.74;98940.91;4749101;29;125086;-85
2023/12/20 13:19:49;;;;;;;3.97;1.50;;;8.90;91.40;;;8.53;51.94;98931.84;4755405;29;124303;-86
2023/12/20 13:22:19;;;;;;;7.03;1.73;;;11.40;92.00;;;8.53;51.73;98929.91;4751041;29;114238;-86
2023/12/20 13:25:03;;;;;;;4.30;1.30;;;8.40;91.40;;;8.56;51.86;98943.06;4795131;29;114310;-86
2023/12/20 13:27:59;;;;;;;3.27;1.37;;;8.40;91.20;;;8.56;51.88;98940.31;4752366;29;95985;-86
2023/12/20 13:31:18;;;;;;;5.73;1.57;;;8.30;91.60;;;8.62;51.83;98938.31;4753240;29;122220;-86
2023/12/20 13:34:25;;;;;;;2.70;1.60;;;8.90;91.40;;;8.69;51.49;98936.03;4734931;29;113666;-86
2023/12/20 13:37:05;;;;;;;2.23;1.50;;;6.90;90.40;;;8.72;51.63;98927.16;4754402;29;112653;-87
2023/12/20 13:39:51;;;;;;;6.20;1.50;;;8.40;91.10;;;8.76;51.05;98936.50;4731586;29;122147;-86
2023/12/20 13:42:48;;;;;;;4.73;1.83;;;8.60;91.10;;;8.76;51.10;98932.91;4731048;29;123552;-87
2023/12/20 13:45:21;;;;;;;5.70;1.50;;;9.60;91.80;;;8.79;51.18;98944.16;4746405;29;113570;-86
2023/12/20 13:48:17;;;;;;;4.90;1.43;;;8.70;91.40;;;8.78;51.43;98928.72;4716645;29;112092;-86
2023/12/20 13:51:23;;;;;;;3.30;1.30;;;8.50;91.10;;;8.80;51.25;98942.22;4750460;29;124781;-87
2023/12/20 13:54:21;;;;;;;2.27;1.30;;;8.00;90.60;;;8.77;51.32;98940.88;4761211;29;122263;-86
2023/12/20 13:57:18;;;;;;;2.60;1.20;;;8.60;90.90;;;8.75;51.52;98951.34;4742564;29;112362;-87
2023/12/20 14:00:00;;;;;;;3.70;1.70;;;7.20;90.30;;;8.76;51.23;98952.19;4737890;29;112063;-88
2023/12/20 14:02:57;;;;;;;4.53;1.60;;;8.50;90.60;;;8.71;51.35;98949.50;4749603;29;123969;-87
2023/12/20 14:05:54;;;;;;;6.53;1.63;;;8.40;91.20;;;8.63;51.15;98928.97;4749160;29;124576;-87
2023/12/20 14:08:50;;;;;;;4.67;1.73;;;9.30;91.10;;;8.61;51.74;98934.75;4798074;29;114115;-86
2023/12/20 14:11:23;;;;;;;7.03;2.77;;;8.40;91.10;;;8.61;51.64;98931.19;4705686;30;112105;-86
2023/12/20 14:14:12;;;;;;;5.60;1.60;;;8.40;91.00;;;8.61;51.84;98928.44;4720139;29;124762;-87
2023/12/20 14:17:39;;;;;;;2.67;1.70;;;8.40;91.00;;;8.58;52.04;98912.50;4711344;29;124311;-87
2023/12/20 14:28:14;;;;;;;3.13;1.63;;;7.00;90.70;;;8.44;52.59;98900.59;4680391;30;125107;-87
2023/12/20 14:31:39;;;;;;;5.10;1.90;;;8.20;91.50;;;8.42;52.84;98891.81;4680927;30;123166;-87
2023/12/20 14:35:21;;;;;;;6.03;1.70;;;7.00;90.90;;;8.40;53.19;98903.09;4741826;29;112899;-86
2023/12/20 14:39:08;;;;;;;7.30;1.73;;;8.20;91.60;;;8.31;53.39;98902.91;4750234;29;114671;-87
2023/12/20 14:42:36;;;;;;;2.90;1.60;;;9.90;92.40;;;8.24;53.92;98905.19;4743923;29;124731;-87
2023/12/20 14:45:44;;;;;;;2.53;1.20;;;8.20;92.10;;;8.23;54.04;98911.81;4765132;29;124612;-86
2023/12/20 14:48:38;;;;;;;4.70;1.83;;;9.90;93.20;;;8.23;54.59;98903.56;4768297;29;112190;-86
2023/12/20 14:51:13;;;;;;;6.67;1.60;;;8.30;92.40;;;8.24;54.68;98918.94;4746299;29;113643;-85
2023/12/20 14:53:47;;;;;;;6.80;1.67;;;8.00;93.00;;;8.22;54.90;98912.09;4772885;29;122633;-87
2023/12/20 14:56:35;;;;;;;2.80;1.60;;;8.00;92.70;;;8.20;55.27;98909.66;4753733;29;124588;-86
2023/12/20 15:00:08;;;;;;;4.30;1.47;;;8.20;92.80;;;8.17;55.33;98908.31;4712110;29;112475;-87
2023/12/20 15:03:09;;;;;;;3.73;1.40;;;8.20;93.10;;;8.14;55.46;98897.06;4704554;30;114962;-87
2023/12/20 15:06:12;;;;;;;4.80;1.30;;;8.00;92.90;;;8.15;55.50;98912.47;4695362;30;123989;-87
2023/12/20 15:09:00;;;;;;;2.10;1.37;;;5.80;92.10;;;8.13;55.71;98915.50;4660898;30;123009;-86
2023/12/20 15:11:58;;;;;;;1.87;1.10;;;7.90;93.30;;;8.12;55.78;98915.81;4660987;30;113726;-87
2023/12/20 15:15:32;;;;;;;3.40;1.30;;;5.80;92.20;;;8.06;56.07;98914.22;4632873;30;113479;-87
2023/12/20 15:19:11;;;;;;;2.90;1.80;;;7.90;93.10;;;8.03;55.97;98923.06;4637155;30;123310;-87
2023/12/20 15:25:21;;;;;;;5.87;1.60;;;7.80;93.30;;;7.98;56.39;98915.69;4908850;23;116092;-87
2023/12/20 15:27:52;;;;;;;3.60;1.70;;;6.20;92.70;;;7.93;56.54;98915.75;4898718;28;114335;-86
2023/12/20 15:30:36;;;;;;;3.10;1.40;;;9.50;94.10;;;7.95;56.60;98908.84;4894319;28;123855;-86
2023/12/20 15:33:51;;;;;;;2.67;1.33;;;7.70;93.70;;;7.94;56.73;98911.88;4892660;28;123328;-86
2023/12/20 15:40:52;;;;;;;4.43;1.20;;;7.80;93.70;;;7.88;57.12;98911.13;4883210;28;114361;-86
2023/12/20 15:43:43;;;;;;;3.70;1.60;;;6.30;93.20;;;7.89;57.25;98914.69;4858061;29;124119;-87
2023/12/20 15:47:04;;;;;;;5.77;1.70;;;7.70;94.10;;;7.87;57.65;98909.50;4836120;29;124520;-86
2023/12/20 15:53:40;;;;;;;7.60;2.13;;;5.60;93.10;;;7.86;57.59;98918.03;4857817;29;114436;-87
2023/12/20 15:56:44;;;;;;;2.13;1.60;;;7.60;94.10;;;7.85;57.60;98928.22;4857016;29;123392;-87
2023/12/20 15:59:14;;;;;;;3.10;1.27;;;5.20;93.20;;;7.86;57.63;98918.84;4803457;29;123761;-87
2023/12/20 16:01:48;;;;;;;3.53;1.47;;;5.20;93.70;;;7.88;57.92;98913.88;4816979;29;113625;-87
2023/12/20 16:08:57;;;;;;;5.10;1.90;;;6.80;94.00;;;7.99;57.89;98939.34;4757037;29;124073;-88
2023/12/20 16:11:52;;;;;;;3.53;1.80;;;7.80;94.50;;;8.01;57.95;98922.56;4749202;29;123639;-86
2023/12/20 16:14:51;;;;;;;8.20;1.60;;;8.10;94.60;;;8.06;57.93;98927.97;4738650;29;114627;-88
2023/12/20 16:18:28;;;;;;;3.20;2.00;;;7.80;94.60;;;8.05;58.31;98932.66;4761008;29;113938;-87
2023/12/20 16:21:33;;;;;;;2.33;1.40;;;7.00;94.20;;;8.02;57.84;98922.25;4715600;30;124139;-87
2023/12/20 16:24:59;;;;;;;3.13;1.40;;;7.80;94.70;;;8.03;57.98;98931.31;4650140;30;123112;-87
2023/12/20 16:28:34;;;;;;;2.47;1.50;;;8.20;94.70;;;8.01;58.22;98911.56;4667082;30;116154;-87
2023/12/20 16:39:49;;;;;;;3.20;1.77;;;7.70;94.80;;;7.92;58.48;98903.91;5052255;23;96964;-86
2023/12/20 16:43:07;;;;;;;4.30;2.03;;;5.80;94.30;;;7.90;58.66;98905.34;4895628;28;113499;-85
2023/12/20 16:46:41;;;;;;;3.27;2.17;;;7.60;94.80;;;7.85;58.74;98891.66;4813914;29;123363;-85
2023/12/20 16:49:34;;;;;;;5.30;1.83;;;9.90;95.80;;;7.83;58.94;98891.13;4848727;29;121411;-85
2023/12/20 16:52:21;;;;;;;2.60;1.60;;;7.50;95.10;;;7.80;58.90;98891.69;4841508;28;115003;-86
2023/12/20 16:55:37;;;;;;;2.93;1.60;;;7.60;95.10;;;7.76;58.77;98894.19;4767176;29;114791;-86
2023/12/20 16:59:17;;;;;;;6.97;2.23;;;7.60;94.90;;;7.73;59.14;98903.03;4823183;29;123851;-86
2023/12/20 17:03:31;;;;;;;4.03;1.70;;;7.70;95.50;;;7.63;58.95;98906.72;4812356;29;123251;-87
2023/12/20 17:15:06;;;;;;;4.27;1.90;;;5.40;94.50;;;7.47;59.51;98884.06;4880468;28;123865;-87
2023/12/20 17:45:11;;;;;;;5.37;2.20;;;7.20;95.50;;;7.37;59.87;98888.84;5542155;23;98693;-86
2023/12/20 17:48:49;;;;;;;3.63;1.67;;;4.90;94.60;;;7.34;60.35;98892.97;4829487;29;114630;-87
2023/12/20 18:07:12;;;;;;;3.63;1.57;;;4.50;94.70;;;7.28;60.25;98883.97;4892303;28;124813;-87
2023/12/20 18:36:26;;;;;;;12.43;1.33;;;7.00;95.50;;;7.28;59.87;98881.22;2476317;23;98291;31
2023/12/20 18:40:17;;;;;;;1.87;1.60;;;7.00;95.50;;;7.28;60.10;98877.63;4857146;28;114289;-87
2023/12/20 18:47:10;;;;;;;5.87;1.70;;;5.50;94.90;;;7.23;60.06;98863.97;4828526;29;124683;-88
2023/12/20 18:50:08;;;;;;;4.23;1.70;;;5.00;94.90;;;7.28;59.98;98877.63;4817481;29;114357;-87
2023/12/20 18:56:49;;;;;;;3.23;1.73;;;7.50;95.80;;;7.31;59.89;98882.56;5345652;23;98722;-87
2023/12/20 19:00:15;;;;;;;3.70;1.43;;;5.50;95.00;;;7.31;59.72;98866.06;4864235;28;123574;-88
2023/12/20 19:09:41;;;;;;;3.40;1.80;;;7.10;95.70;;;7.38;59.54;98866.53;4918199;23;98729;-86
2023/12/20 19:15:24;;;;;;;4.83;1.60;;;7.10;95.50;;;7.42;59.42;98858.56;4908536;23;97371;-87
2023/12/20 19:31:19;;;;;;;3.27;1.70;;;7.10;95.50;;;7.40;59.59;98845.09;5160065;23;97594;-85
2023/12/20 19:48:15;;;;;;;4.00;1.70;;;7.20;95.60;;;7.38;59.92;98810.75;5355686;23;97179;-86
2023/12/20 19:56:39;;;;;;;6.60;3.00;;;7.20;96.10;;;7.30;59.99;98804.78;4883922;28;116437;-78
2023/12/20 19:59:05;;;;;;;4.63;2.07;;;9.90;97.20;;;7.31;59.97;98800.13;4868575;28;123986;-78
2023/12/20 20:01:34;;;;;;;2.47;1.90;;;5.70;95.50;;;7.32;59.97;98806.44;4861321;28;123626;-78
2023/12/20 20:04:01;;;;;;;3.67;1.60;;;8.60;96.40;;;7.30;60.22;98798.47;4876196;28;114392;-78
2023/12/20 20:06:27;;;;;;;5.00;2.00;;;8.70;96.40;;;7.30;59.95;98806.72;4873577;28;113664;-78
2023/12/20 20:08:54;;;;;;;4.00;1.97;;;7.00;96.00;;;7.29;60.00;98789.41;4870171;28;123959;-79
2023/12/20 20:11:27;;;;;;;6.00;2.07;;;7.00;95.70;;;7.32;60.34;98784.44;4872148;28;124556;-80
2023/12/20 20:13:55;;;;;;;2.83;1.80;;;7.00;95.80;;;7.31;60.26;98783.63;4870270;28;114260;-78
2023/12/20 20:16:22;;;;;;;4.33;1.70;;;7.00;95.80;;;7.32;59.96;98785.25;4887542;28;113861;-79
2023/12/20 20:18:50;;;;;;;1.50;1.23;;;7.10;95.80;;;7.32;60.34;98795.44;4846747;28;124125;-78
2023/12/20 20:21:17;;;;;;;2.90;1.90;;;7.00;95.80;;;7.28;60.39;98779.53;4851310;29;123655;-78
2023/12/20 20:23:45;;;;;;;3.67;1.90;;;7.00;95.80;;;7.26;60.46;98787.25;4841216;29;115089;-78
2023/12/20 20:26:12;;;;;;;3.87;1.60;;;7.00;95.90;;;7.24;60.39;98783.16;4861448;28;114042;-78
2023/12/20 20:28:41;;;;;;;4.30;1.87;;;7.00;95.90;;;7.20;60.94;98785.66;4855024;29;122135;-80
2023/12/20 20:31:09;;;;;;;2.10;1.67;;;6.90;96.00;;;7.19;60.69;98781.25;4843768;29;124052;-78
2023/12/20 20:33:35;;;;;;;3.33;1.70;;;7.00;96.00;;;7.18;60.64;98779.63;4852096;29;115183;-78
2023/12/20 20:36:06;;;;;;;2.90;1.67;;;6.90;96.00;;;7.17;61.03;98769.75;4857046;29;114741;-78
2023/12/20 20:38:33;;;;;;;5.50;1.60;;;6.90;96.10;;;7.18;61.00;98767.84;4844052;29;123692;-79
2023/12/20 20:41:03;;;;;;;4.37;1.93;;;6.90;96.10;;;7.18;61.02;98778.81;4857619;29;124065;-79
2023/12/20 20:43:30;;;;;;;3.77;1.97;;;6.90;96.20;;;7.19;61.07;98774.94;4855763;29;114235;-86
2023/12/20 20:46:06;;;;;;;2.80;1.60;;;6.90;96.20;;;7.20;60.71;98779.31;4873021;29;113740;-84
2023/12/20 20:48:41;;;;;;;4.93;1.80;;;8.80;97.00;;;7.22;60.71;98782.59;4863185;29;123241;-85
2023/12/20 20:51:11;;;;;;;3.97;1.90;;;6.90;96.20;;;7.19;60.71;98794.19;4868897;28;123885;-84
2023/12/20 20:53:38;;;;;;;3.43;1.60;;;6.90;96.40;;;7.18;60.77;98795.31;4866544;28;113797;-81
2023/12/20 20:56:06;;;;;;;3.63;1.37;;;7.80;96.60;;;7.17;60.85;98783.47;4832356;29;114040;-80
2023/12/20 20:58:36;;;;;;;7.80;1.93;;;6.90;96.30;;;7.15;60.81;98774.72;4834727;29;123446;-84
2023/12/20 21:01:04;;;;;;;3.80;2.10;;;5.60;96.10;;;7.15;60.84;98774.72;4853261;29;123864;-80
2023/12/20 21:03:34;;;;;;;1.77;1.33;;;6.80;97.00;;;7.19;61.00;98786.75;4854357;29;113447;-85
2023/12/20 21:06:02;;;;;;;3.50;1.63;;;5.90;95.90;;;7.19;60.94;98774.94;4867540;29;112195;-81
2023/12/20 21:09:09;;;;;;;4.00;1.63;;;6.80;96.90;;;7.19;61.05;98774.94;4866516;28;124053;-85
2023/12/20 21:11:56;;;;;;;2.50;1.50;;;6.90;96.30;;;7.22;60.77;98782.59;4855405;29;123824;-84
2023/12/20 21:14:30;;;;;;;6.17;1.80;;;6.10;96.00;;;7.19;60.88;98767.53;4844042;29;113788;-84
2023/12/20 21:16:58;;;;;;;3.60;2.20;;;8.00;97.60;;;7.21;60.76;98748.00;4855199;29;114266;-84
2023/12/20 21:19:35;;;;;;;6.40;1.57;;;6.10;95.90;;;7.24;60.64;98739.19;4866038;29;123776;-86
2023/12/20 21:22:02;;;;;;;5.50;1.70;;;5.90;96.20;;;7.22;60.90;98742.22;4871522;28;123485;-86
2023/12/20 21:24:51;;;;;;;2.80;1.60;;;7.10;96.70;;;7.27;60.52;98742.16;4882385;28;114477;-87
2023/12/20 21:27:30;;;;;;;1.90;1.37;;;9.90;97.30;;;7.28;60.62;98746.56;5196852;23;113431;-86
2023/12/20 21:30:09;;;;;;;3.40;1.60;;;7.20;96.20;;;7.30;60.50;98727.00;4839899;29;124698;-82
2023/12/20 21:32:47;;;;;;;2.20;1.50;;;7.00;96.40;;;7.29;60.33;98747.38;4856053;29;123626;-85